KCIC

Chico Municipal Airport

Chico, California, USA
METAR KCIC 220955Z AUTO 04003KT 10SM CLR 19/11 A2979 RMK AO1
Observed Flight Rules
May-22 @ 09:55 UTC (12 minutes ago) Visual Flight Rules
Wind Visibility Clouds
40° at 3 knots 10 miles
  • Clear skies
Temperatures Readings
Current 19°C / 66°F
Dewpoint 11°C / 52°F
Humidity 60%
Altimeter 29.79" Hg
Pressure 1009 hPa
Elevation 73
METAR KCIC 220955Z AUTO 04003KT 10SM CLR 19/11 A2979 RMK AO1
Observed Flight Rules
May-22 @ 09:55 UTC
(12 minutes ago)
VFR
Wind Visibility
40° at 3 knots 10 miles
Clouds
  • Clear skies
Temperature Dewpoint
19°C / 66°F 11°C / 52°F
Humidity Altimeter Pressure
60% 29.79" Hg 1009 hPa